Time,TemperatureF,DewpointF,PressureIn,WindDirection,WindDirectionDegrees,WindSpeedMPH,WindSpeedGustMPH,Humidity,HourlyPrecipIn,Conditions,Clouds,dailyrainin,SoftwareType,DateUTC
2013-01-16 00:04:00,56.0,-99.9,30.08,North,-999,-999.0,-999.0,-999,-99.99,,,-99.99,,2013-01-16 05:04:00,
2013-01-16 00:12:00,57.0,-99.9,30.08,NNE,23,2.0,3.0,-999,-99.99,,,-99.99,,2013-01-16 05:12:00,
2013-01-16 00:23:00,57.0,-99.9,30.07,North,-999,-999.0,-999.0,-999,-99.99,,,-99.99,,2013-01-16 05:23:00,
2013-01-16 00:33:00,56.0,-99.9,30.08,North,-999,-999.0,-999.0,-999,-99.99,,,-99.99,,2013-01-16 05:33:00,
2013-01-16 00:43:00,56.0,-99.9,30.07,North,-999,-999.0,-999.0,-999,-99.99,,,-99.99,,2013-01-16 05:43:00,
2013-01-16 00:53:00,56.0,-99.9,30.06,North,-999,-999.0,-999.0,-999,-99.99,,,-99.99,,2013-01-16 05:53:00,
2013-01-16 01:03:00,-999.0,-99.9,30.07,SE,131,2.0,3.0,-999,-99.99,,,-99.99,,2013-01-16 06:03:00,
2013-01-16 01:12:00,57.0,-99.9,30.07,North,-999,-999.0,-999.0,-999,-99.99,,,-99.99,,2013-01-16 06:12:00,
2013-01-16 01:22:00,57.0,-99.9,30.07,North,-999,-999.0,-999.0,-999,-99.99,,,-99.99,,2013-01-16 06:22:00,
2013-01-16 01:33:00,-999.0,-99.9,30.06,SE,130,6.0,6.0,-999,-99.99,,,-99.99,,2013-01-16 06:33:00,
2013-01-16 01:43:00,57.0,-99.9,30.06,SE,126,6.0,7.0,-999,-99.99,,,-99.99,,2013-01-16 06:43:00,
2013-01-16 01:53:00,-999.0,-99.9,30.06,ESE,118,6.0,7.0,-999,-99.99,,,-99.99,,2013-01-16 06:53:00,
2013-01-16 02:02:00,57.0,-99.9,30.06,North,-999,-999.0,-999.0,-999,-99.99,,,-99.99,,2013-01-16 07:02:00,
2013-01-16 02:12:00,-999.0,-99.9,30.06,SE,125,8.0,8.0,-999,-99.99,,,-99.99,,2013-01-16 07:12:00,
2013-01-16 02:33:00,58.0,-99.9,30.06,North,-999,-999.0,-999.0,-999,-99.99,,,-99.99,,2013-01-16 07:33:00,
2013-01-16 02:42:00,-999.0,-99.9,30.06,SE,124,6.0,8.0,-999,-99.99,,,-99.99,,2013-01-16 07:42:00,
2013-01-16 02:52:00,-999.0,-99.9,30.06,SE,124,7.0,7.0,-999,-99.99,,,-99.99,,2013-01-16 07:52:00,
2013-01-16 03:03:00,-999.0,-99.9,30.06,SE,134,6.0,7.0,-999,-99.99,,,-99.99,,2013-01-16 08:03:00,
2013-01-16 03:12:00,58.0,-99.9,30.06,SE,133,5.0,6.0,-999,-99.99,,,-99.99,,2013-01-16 08:12:00,
2013-01-16 03:23:00,58.0,-99.9,30.06,North,-999,-999.0,-999.0,-999,-99.99,,,-99.99,,2013-01-16 08:23:00,
2013-01-16 03:33:00,58.0,-99.9,30.05,North,-999,-999.0,-999.0,-999,-99.99,,,-99.99,,2013-01-16 08:33:00,
2013-01-16 03:42:00,-999.0,-99.9,30.05,SE,143,2.0,3.0,-999,-99.99,,,-99.99,,2013-01-16 08:42:00,
2013-01-16 03:53:00,59.0,-99.9,30.04,North,-999,-999.0,-999.0,-999,-99.99,,,-99.99,,2013-01-16 08:53:00,
2013-01-16 04:02:00,58.0,-99.9,30.04,North,-999,-999.0,-999.0,-999,-99.99,,,-99.99,,2013-01-16 09:02:00,
2013-01-16 04:12:00,-999.0,-99.9,30.04,South,177,4.0,6.0,-999,-99.99,,,-99.99,,2013-01-16 09:12:00,
2013-01-16 04:22:00,58.0,-99.9,30.03,North,-999,-999.0,-999.0,-999,-99.99,,,-99.99,,2013-01-16 09:22:00,
2013-01-16 04:43:00,60.0,-99.9,30.02,North,-999,-999.0,-999.0,-999,-99.99,,,-99.99,,2013-01-16 09:43:00,
2013-01-16 04:53:00,-999.0,-99.9,30.02,SSW,205,10.0,13.0,-999,-99.99,,,-99.99,,2013-01-16 09:53:00,
2013-01-16 05:03:00,-999.0,-99.9,30.02,SSW,200,9.0,12.0,-999,-99.99,,,-99.99,,2013-01-16 10:03:00,
2013-01-16 05:12:00,-999.0,-99.9,30.01,SSW,204,11.0,13.0,-999,-99.99,,,-99.99,,2013-01-16 10:12:00,
2013-01-16 05:22:00,-999.0,-99.9,30.01,SSW,206,11.0,13.0,-999,-99.99,,,-99.99,,2013-01-16 10:22:00,
2013-01-16 05:33:00,63.0,-99.9,30.01,North,-999,-999.0,-999.0,-999,-99.99,,,-99.99,,2013-01-16 10:33:00,
2013-01-16 05:43:00,-999.0,-99.9,30.01,SSW,211,11.0,14.0,-999,-99.99,,,-99.99,,2013-01-16 10:43:00,
2013-01-16 05:53:00,-999.0,-99.9,30.02,SSW,208,9.0,12.0,-999,-99.99,,,-99.99,,2013-01-16 10:53:00,
2013-01-16 06:02:00,-999.0,-99.9,30.02,SSW,211,10.0,13.0,-999,-99.99,,,-99.99,,2013-01-16 11:02:00,
2013-01-16 06:12:00,63.0,-99.9,30.02,North,-999,-999.0,-999.0,-999,-99.99,,,-99.99,,2013-01-16 11:12:00,
2013-01-16 06:23:00,-999.0,-99.9,30.02,SSW,212,10.0,12.0,-999,-99.99,,,-99.99,,2013-01-16 11:23:00,
2013-01-16 06:33:00,63.0,-99.9,30.02,North,-999,-999.0,-999.0,-999,-99.99,,,-99.99,,2013-01-16 11:33:00,
2013-01-16 06:43:00,-999.0,-99.9,30.02,SSW,210,8.0,11.0,-999,-99.99,,,-99.99,,2013-01-16 11:43:00,
2013-01-16 06:53:00,-999.0,-99.9,30.02,SSW,210,10.0,13.0,-999,-99.99,,,-99.99,,2013-01-16 11:53:00,
2013-01-16 07:03:00,62.0,-99.9,30.02,North,-999,-999.0,-999.0,-999,-99.99,,,-99.99,,2013-01-16 12:03:00,
2013-01-16 07:13:00,62.0,-99.9,30.02,North,-999,-999.0,-999.0,-999,-99.99,,,-99.99,,2013-01-16 12:13:00,
2013-01-16 07:22:00,-999.0,-99.9,30.02,SSW,209,10.0,12.0,-999,-99.99,,,-99.99,,2013-01-16 12:22:00,
2013-01-16 07:33:00,-999.0,-99.9,30.03,SSW,211,10.0,13.0,-999,-99.99,,,-99.99,,2013-01-16 12:33:00,
2013-01-16 07:43:00,-999.0,-99.9,30.03,SSW,208,9.0,14.0,-999,-99.99,,,-99.99,,2013-01-16 12:43:00,
2013-01-16 07:53:00,62.0,-99.9,30.03,North,-999,-999.0,-999.0,-999,-99.99,,,-99.99,,2013-01-16 12:53:00,
2013-01-16 08:03:00,-999.0,-99.9,30.04,SW,214,9.0,14.0,-999,-99.99,,,-99.99,,2013-01-16 13:03:00,
2013-01-16 08:13:00,63.0,-99.9,30.04,SSW,209,9.0,12.0,-999,-99.99,,,-99.99,,2013-01-16 13:13:00,
2013-01-16 08:23:00,63.0,-99.9,30.04,North,-999,-999.0,-999.0,-999,-99.99,,,-99.99,,2013-01-16 13:23:00,
2013-01-16 08:33:00,-999.0,-99.9,30.04,SSW,206,11.0,13.0,-999,-99.99,,,-99.99,,2013-01-16 13:33:00,
2013-01-16 08:43:00,-999.0,-99.9,30.04,SSW,207,10.0,14.0,-999,-99.99,,,-99.99,,2013-01-16 13:43:00,
2013-01-16 08:53:00,64.0,-99.9,30.04,North,-999,-999.0,-999.0,-999,-99.99,,,-99.99,,2013-01-16 13:53:00,
2013-01-16 09:03:00,-999.0,-99.9,30.04,SSW,206,11.0,13.0,-999,-99.99,,,-99.99,,2013-01-16 14:03:00,
2013-01-16 09:12:00,63.0,-99.9,30.04,SSW,206,11.0,13.0,-999,-99.99,,,-99.99,,2013-01-16 14:12:00,
2013-01-16 09:23:00,-999.0,-99.9,30.05,SSW,206,13.0,14.0,-999,-99.99,,,-99.99,,2013-01-16 14:23:00,
2013-01-16 09:33:00,-999.0,-99.9,30.05,SSW,205,12.0,17.0,-999,-99.99,,,-99.99,,2013-01-16 14:33:00,
2013-01-16 09:43:00,-999.0,-99.9,30.05,SSW,209,10.0,14.0,-999,-99.99,,,-99.99,,2013-01-16 14:43:00,
2013-01-16 09:53:00,-999.0,-99.9,30.05,SSW,207,12.0,15.0,-999,-99.99,,,-99.99,,2013-01-16 14:53:00,
2013-01-16 10:12:00,65.0,-99.9,30.05,SSW,210,12.0,19.0,-999,-99.99,,,-99.99,,2013-01-16 15:12:00,
2013-01-16 10:23:00,66.0,-99.9,30.05,North,-999,-999.0,-999.0,-999,-99.99,,,-99.99,,2013-01-16 15:23:00,
2013-01-16 10:33:00,65.0,-99.9,30.05,North,-999,-999.0,-999.0,-999,-99.99,,,-99.99,,2013-01-16 15:33:00,
2013-01-16 10:43:00,-999.0,-99.9,30.05,SSW,208,10.0,14.0,-999,-99.99,,,-99.99,,2013-01-16 15:43:00,
2013-01-16 11:04:00,66.0,-99.9,30.05,North,-999,-999.0,-999.0,-999,-99.99,,,-99.99,,2013-01-16 16:04:00,
2013-01-16 11:12:00,-999.0,-99.9,30.05,SW,224,6.0,13.0,-999,-99.99,,,-99.99,,2013-01-16 16:12:00,
2013-01-16 11:23:00,-999.0,-99.9,30.04,SW,221,7.0,11.0,-999,-99.99,,,-99.99,,2013-01-16 16:23:00,
2013-01-16 11:33:00,65.0,-99.9,30.04,North,-999,-999.0,-999.0,-999,-99.99,,,-99.99,,2013-01-16 16:33:00,
2013-01-16 11:43:00,65.0,-99.9,30.04,SW,231,7.0,12.0,-999,-99.99,,,-99.99,,2013-01-16 16:43:00,
2013-01-16 11:53:00,65.0,-99.9,30.04,North,-999,-999.0,-999.0,-999,-99.99,,,-99.99,,2013-01-16 16:53:00,
2013-01-16 12:03:00,64.0,-99.9,30.03,North,-999,-999.0,-999.0,-999,-99.99,,,-99.99,,2013-01-16 17:03:00,
2013-01-16 12:12:00,-999.0,-99.9,30.02,SW,219,5.0,10.0,-999,-99.99,,,-99.99,,2013-01-16 17:12:00,
2013-01-16 12:23:00,-999.0,-99.9,30.01,SW,215,9.0,14.0,-999,-99.99,,,-99.99,,2013-01-16 17:23:00,
2013-01-16 12:33:00,-999.0,-99.9,30.01,SSW,213,8.0,12.0,-999,-99.99,,,-99.99,,2013-01-16 17:33:00,
2013-01-16 12:44:00,64.0,-99.9,30.01,North,-999,-999.0,-999.0,-999,-99.99,,,-99.99,,2013-01-16 17:44:00,
2013-01-16 12:53:00,-999.0,-99.9,30.00,SW,220,6.0,10.0,-999,-99.99,,,-99.99,,2013-01-16 17:53:00,
2013-01-16 13:03:00,65.0,-99.9,30.00,North,-999,-999.0,-999.0,-999,-99.99,,,-99.99,,2013-01-16 18:03:00,
2013-01-16 13:13:00,64.0,-99.9,30.00,North,-999,-999.0,-999.0,-999,-99.99,,,-99.99,,2013-01-16 18:13:00,
2013-01-16 13:23:00,-999.0,-99.9,29.99,SW,227,6.0,11.0,-999,-99.99,,,-99.99,,2013-01-16 18:23:00,
2013-01-16 13:33:00,64.0,-99.9,29.99,North,-999,-999.0,-999.0,-999,-99.99,,,-99.99,,2013-01-16 18:33:00,
2013-01-16 13:53:00,65.0,-99.9,29.99,North,-999,-999.0,-999.0,-999,-99.99,,,-99.99,,2013-01-16 18:53:00,
2013-01-16 14:03:00,65.0,-99.9,29.99,North,-999,-999.0,-999.0,-999,-99.99,,,-99.99,,2013-01-16 19:03:00,
2013-01-16 14:13:00,-999.0,-99.9,29.98,SW,230,6.0,12.0,-999,-99.99,,,-99.99,,2013-01-16 19:13:00,
2013-01-16 14:23:00,66.0,-99.9,29.98,North,-999,-999.0,-999.0,-999,-99.99,,,-99.99,,2013-01-16 19:23:00,
2013-01-16 14:33:00,-999.0,-99.9,29.98,SW,236,7.0,16.0,-999,-99.99,,,-99.99,,2013-01-16 19:33:00,
2013-01-16 14:43:00,66.0,-99.9,29.98,SW,234,7.0,15.0,-999,-99.99,,,-99.99,,2013-01-16 19:43:00,
2013-01-16 14:53:00,66.0,-99.9,29.98,North,-999,-999.0,-999.0,-999,-99.99,,,-99.99,,2013-01-16 19:53:00,
2013-01-16 15:03:00,-999.0,-99.9,29.98,SW,219,6.0,12.0,-999,-99.99,,,-99.99,,2013-01-16 20:03:00,
2013-01-16 15:12:00,65.0,-99.9,29.98,North,-999,-999.0,-999.0,-999,-99.99,,,-99.99,,2013-01-16 20:12:00,
2013-01-16 15:23:00,65.0,-99.9,29.98,North,-999,-999.0,-999.0,-999,-99.99,,,-99.99,,2013-01-16 20:23:00,
2013-01-16 15:33:00,-999.0,-99.9,29.98,SW,227,6.0,15.0,-999,-99.99,,,-99.99,,2013-01-16 20:33:00,
2013-01-16 15:43:00,-999.0,-99.9,29.98,SW,218,7.0,13.0,-999,-99.99,,,-99.99,,2013-01-16 20:43:00,
2013-01-16 15:53:00,65.0,-99.9,29.98,North,-999,-999.0,-999.0,-999,-99.99,,,-99.99,,2013-01-16 20:53:00,
2013-01-16 16:03:00,65.0,-99.9,29.98,North,-999,-999.0,-999.0,-999,-99.99,,,-99.99,,2013-01-16 21:03:00,
2013-01-16 16:13:00,64.0,-99.9,29.98,SW,214,10.0,16.0,-999,-99.99,,,-99.99,,2013-01-16 21:13:00,
2013-01-16 16:23:00,-999.0,-99.9,29.99,SW,214,9.0,15.0,-999,-99.99,,,-99.99,,2013-01-16 21:23:00,
2013-01-16 16:33:00,64.0,-99.9,29.99,North,-999,-999.0,-999.0,-999,-99.99,,,-99.99,,2013-01-16 21:33:00,
2013-01-16 16:53:00,63.0,-99.9,29.99,North,-999,-999.0,-999.0,-999,-99.99,,,-99.99,,2013-01-16 21:53:00,
2013-01-16 17:03:00,63.0,-99.9,29.99,North,-999,-999.0,-999.0,-999,-99.99,,,-99.99,,2013-01-16 22:03:00,
2013-01-16 17:23:00,-999.0,-99.9,29.99,SSW,211,9.0,13.0,-999,-99.99,,,-99.99,,2013-01-16 22:23:00,
2013-01-16 17:33:00,63.0,-99.9,29.99,North,-999,-999.0,-999.0,-999,-99.99,,,-99.99,,2013-01-16 22:33:00,
2013-01-16 17:43:00,63.0,-99.9,29.99,SSW,210,10.0,14.0,-999,-99.99,,,-99.99,,2013-01-16 22:43:00,
2013-01-16 17:53:00,-999.0,-99.9,30.00,SW,214,8.0,14.0,-999,-99.99,,,-99.99,,2013-01-16 22:53:00,
2013-01-16 18:03:00,62.0,-99.9,30.00,North,-999,-999.0,-999.0,-999,-99.99,,,-99.99,,2013-01-16 23:03:00,
2013-01-16 18:12:00,-999.0,-99.9,30.00,SW,226,5.0,11.0,-999,-99.99,,,-99.99,,2013-01-16 23:12:00,
2013-01-16 18:23:00,62.0,-99.9,30.00,North,-999,-999.0,-999.0,-999,-99.99,,,-99.99,,2013-01-16 23:23:00,
2013-01-16 18:33:00,-999.0,-99.9,30.00,SW,235,5.0,11.0,-999,-99.99,,,-99.99,,2013-01-16 23:33:00,
2013-01-16 18:53:00,63.0,-99.9,30.02,North,-999,-999.0,-999.0,-999,-99.99,,,-99.99,,2013-01-16 23:53:00,
2013-01-16 19:03:00,-999.0,-99.9,30.02,West,268,3.0,11.0,-999,-99.99,,,-99.99,,2013-01-17 00:03:00,
2013-01-16 19:12:00,-999.0,-99.9,30.02,WSW,246,4.0,9.0,-999,-99.99,,,-99.99,,2013-01-17 00:12:00,
2013-01-16 19:23:00,-999.0,-99.9,30.02,WSW,250,2.0,10.0,-999,-99.99,,,-99.99,,2013-01-17 00:23:00,
2013-01-16 19:33:00,62.0,-99.9,30.02,North,-999,-999.0,-999.0,-999,-99.99,,,-99.99,,2013-01-17 00:33:00,
2013-01-16 19:43:00,-999.0,-99.9,30.01,SW,223,5.0,12.0,-999,-99.99,,,-99.99,,2013-01-17 00:43:00,
2013-01-16 19:53:00,61.0,-99.9,30.01,North,-999,-999.0,-999.0,-999,-99.99,,,-99.99,,2013-01-17 00:53:00,
2013-01-16 20:03:00,61.0,-99.9,30.02,North,-999,-999.0,-999.0,-999,-99.99,,,-99.99,,2013-01-17 01:03:00,
2013-01-16 20:12:00,61.0,-99.9,30.02,North,-999,-999.0,-999.0,-999,-99.99,,,-99.99,,2013-01-17 01:12:00,
2013-01-16 20:22:00,60.0,-99.9,30.03,North,-999,-999.0,-999.0,-999,-99.99,,,-99.99,,2013-01-17 01:22:00,
2013-01-16 20:33:00,58.0,-99.9,30.03,North,-999,-999.0,-999.0,-999,-99.99,,,-99.99,,2013-01-17 01:33:00,
2013-01-16 20:43:00,58.0,-99.9,30.03,North,-999,-999.0,-999.0,-999,-99.99,,,-99.99,,2013-01-17 01:43:00,
2013-01-16 20:53:00,-999.0,-99.9,30.03,NE,42,6.0,7.0,-999,-99.99,,,-99.99,,2013-01-17 01:53:00,
2013-01-16 21:02:00,57.0,-99.9,30.03,North,-999,-999.0,-999.0,-999,-99.99,,,-99.99,,2013-01-17 02:02:00,
2013-01-16 21:12:00,57.0,-99.9,30.03,ENE,69,6.0,7.0,-999,-99.99,,,-99.99,,2013-01-17 02:12:00,
2013-01-16 21:22:00,57.0,-99.9,30.03,North,-999,-999.0,-999.0,-999,-99.99,,,-99.99,,2013-01-17 02:22:00,
2013-01-16 21:32:00,57.0,-99.9,30.03,North,-999,-999.0,-999.0,-999,-99.99,,,-99.99,,2013-01-17 02:32:00,
2013-01-16 21:43:00,57.0,-99.9,30.03,North,-999,-999.0,-999.0,-999,-99.99,,,-99.99,,2013-01-17 02:43:00,
2013-01-16 21:52:00,57.0,-99.9,30.03,North,-999,-999.0,-999.0,-999,-99.99,,,-99.99,,2013-01-17 02:52:00,
2013-01-16 22:03:00,57.0,-99.9,30.02,North,-999,-999.0,-999.0,-999,-99.99,,,-99.99,,2013-01-17 03:03:00,
2013-01-16 22:12:00,57.0,-99.9,30.02,North,-999,-999.0,-999.0,-999,-99.99,,,-99.99,,2013-01-17 03:12:00,
2013-01-16 22:22:00,57.0,-99.9,30.02,North,-999,-999.0,-999.0,-999,-99.99,,,-99.99,,2013-01-17 03:22:00,
2013-01-16 22:33:00,-999.0,-99.9,30.01,SE,141,2.0,2.0,-999,-99.99,,,-99.99,,2013-01-17 03:33:00,
2013-01-16 22:43:00,-999.0,-99.9,30.01,SE,138,1.0,2.0,-999,-99.99,,,-99.99,,2013-01-17 03:43:00,
2013-01-16 22:53:00,-999.0,-99.9,30.00,SE,138,2.0,2.0,-999,-99.99,,,-99.99,,2013-01-17 03:53:00,
2013-01-16 23:02:00,57.0,-99.9,30.00,North,-999,-999.0,-999.0,-999,-99.99,,,-99.99,,2013-01-17 04:02:00,
2013-01-16 23:12:00,-999.0,-99.9,30.00,SE,146,5.0,6.0,-999,-99.99,,,-99.99,,2013-01-17 04:12:00,
2013-01-16 23:23:00,-999.0,-99.9,30.00,SSE,158,5.0,6.0,-999,-99.99,,,-99.99,,2013-01-17 04:23:00,
2013-01-16 23:33:00,58.0,-99.9,29.99,North,-999,-999.0,-999.0,-999,-99.99,,,-99.99,,2013-01-17 04:33:00,
2013-01-16 23:43:00,58.0,-99.9,29.99,North,-999,-999.0,-999.0,-999,-99.99,,,-99.99,,2013-01-17 04:43:00,
2013-01-16 23:53:00,-999.0,-99.9,30.00,SSW,193,3.0,4.0,-999,-99.99,,,-99.99,,2013-01-17 04:53:00,